createdAt,value
2022-08-20T00:02:09.666Z,4.53
2022-08-20T00:04:37.068Z,4.05
2022-08-20T00:07:07.026Z,4.05
2022-08-20T00:09:36.444Z,4.30
2022-08-20T00:12:04.558Z,6.00
2022-08-20T00:14:31.329Z,4.05
2022-08-20T00:17:01.185Z,4.22
2022-08-20T00:19:28.242Z,5.65
2022-08-20T00:21:58.164Z,4.32
2022-08-20T00:24:25.697Z,5.05
2022-08-20T00:26:52.791Z,4.30
2022-08-20T00:29:20.330Z,5.47
2022-08-20T00:31:47.550Z,4.00
2022-08-20T00:34:14.705Z,4.25
2022-08-20T00:36:41.360Z,4.07
2022-08-20T00:39:08.056Z,5.65
2022-08-20T00:41:35.112Z,4.28
2022-08-20T00:44:18.409Z,3.97
2022-08-20T00:46:45.811Z,3.85
2022-08-20T00:49:17.511Z,4.43
2022-08-20T00:51:47.248Z,3.80
2022-08-20T00:54:37.993Z,3.70
2022-08-20T00:57:53.305Z,4.50
2022-08-20T01:00:32.892Z,7.10
2022-08-20T01:03:00.632Z,4.63
2022-08-20T01:05:29.788Z,5.47
2022-08-20T01:07:58.294Z,4.43
2022-08-20T01:10:27.801Z,7.07
2022-08-20T01:12:59.447Z,4.30
2022-08-20T01:15:30.960Z,6.65
2022-08-20T01:18:00.910Z,4.95
2022-08-20T01:20:42.480Z,8.38
2022-08-20T01:23:27.696Z,5.13
2022-08-20T01:26:06.929Z,5.90
2022-08-20T01:28:43.956Z,5.65
2022-08-20T01:31:22.002Z,5.93
2022-08-20T01:33:49.195Z,5.50
2022-08-20T01:36:18.916Z,7.05
2022-08-20T01:38:53.210Z,5.63
2022-08-20T01:41:40.835Z,6.20
2022-08-20T01:44:10.999Z,5.90
2022-08-20T01:46:45.353Z,5.25
2022-08-20T01:49:22.947Z,6.13
2022-08-20T01:51:51.163Z,7.80
2022-08-20T01:54:18.359Z,7.28
2022-08-20T02:02:06.957Z,5.97
2022-08-20T02:04:34.879Z,6.03
2022-08-20T02:07:04.646Z,5.70
2022-08-20T02:09:35.641Z,6.25
2022-08-20T02:12:03.550Z,6.18
2022-08-20T02:14:30.322Z,6.38
2022-08-20T02:17:00.603Z,6.85
2022-08-20T02:19:33.201Z,6.88
2022-08-20T02:22:05.476Z,7.50
2022-08-20T02:24:32.204Z,6.53
2022-08-20T02:26:58.949Z,6.75
2022-08-20T02:29:26.269Z,7.00
2022-08-20T02:32:24.519Z,6.60
2022-08-20T02:34:41.932Z,7.63
2022-08-20T02:37:09.663Z,6.10
2022-08-20T02:39:36.664Z,7.32
2022-08-20T02:42:05.195Z,6.97
2022-08-20T02:44:32.206Z,7.30
2022-08-20T02:47:00.723Z,7.68
2022-08-20T02:49:28.203Z,7.68
2022-08-20T02:51:54.898Z,7.32
2022-08-20T02:54:21.556Z,8.50
2022-08-20T02:56:48.233Z,7.82
2022-08-20T02:59:19.651Z,7.32
2022-08-20T03:01:48.427Z,8.13
2022-08-20T03:04:26.910Z,7.75
2022-08-20T03:06:53.541Z,8.02
2022-08-20T03:09:20.186Z,8.07
2022-08-20T03:11:46.792Z,8.38
2022-08-20T03:14:13.897Z,8.48
2022-08-20T03:16:40.970Z,7.82
2022-08-20T03:19:08.529Z,7.15
2022-08-20T03:21:35.612Z,7.10
2022-08-20T03:24:02.325Z,7.30
2022-08-20T03:26:28.953Z,8.30
2022-08-20T03:28:56.025Z,7.95
2022-08-20T03:31:22.696Z,7.78
2022-08-20T03:33:53.482Z,9.20
2022-08-20T03:36:28.002Z,9.05
2022-08-20T03:39:00.515Z,8.48
2022-08-20T03:41:28.634Z,7.95
2022-08-20T03:43:55.798Z,7.05
2022-08-20T03:46:23.937Z,7.32
2022-08-20T03:49:00.068Z,8.10
2022-08-20T03:51:27.629Z,7.85
2022-08-20T03:53:54.310Z,7.72
2022-08-20T03:56:21.361Z,8.52
2022-08-20T03:58:47.994Z,9.88
2022-08-20T04:01:45.675Z,8.63
2022-08-20T04:04:01.825Z,7.95
2022-08-20T04:06:29.540Z,9.00
2022-08-20T04:09:01.039Z,8.00
2022-08-20T04:11:28.139Z,7.78
2022-08-20T04:13:54.792Z,7.97
2022-08-20T04:16:22.347Z,8.40
2022-08-20T04:18:56.080Z,9.07
2022-08-20T04:21:32.695Z,8.73
2022-08-20T04:24:01.266Z,7.60
2022-08-20T04:26:28.443Z,7.38
2022-08-20T04:28:55.913Z,7.68
2022-08-20T04:31:32.585Z,7.63
2022-08-20T04:34:07.636Z,8.07
2022-08-20T04:36:35.368Z,8.15
2022-08-20T04:39:02.062Z,8.63
2022-08-20T04:41:28.928Z,6.97
2022-08-20T04:43:56.925Z,7.80
2022-08-20T04:46:27.570Z,8.10
2022-08-20T04:48:55.409Z,8.02
2022-08-20T04:51:23.547Z,7.57
2022-08-20T04:53:53.946Z,9.18
2022-08-20T04:56:26.567Z,7.55
2022-08-20T04:58:55.427Z,8.77
2022-08-20T05:01:23.751Z,7.30
2022-08-20T05:03:53.540Z,7.93
2022-08-20T05:06:21.300Z,7.78
2022-08-20T05:08:47.981Z,8.15
2022-08-20T05:11:33.971Z,7.80
2022-08-20T05:14:01.494Z,7.20
2022-08-20T05:16:28.597Z,8.18
2022-08-20T05:18:55.656Z,7.95
2022-08-20T05:21:22.289Z,7.85
2022-08-20T05:23:49.326Z,8.65
2022-08-20T05:26:16.937Z,7.05
2022-08-20T05:28:57.501Z,8.18
2022-08-20T05:31:32.692Z,8.63
2022-08-20T05:34:18.150Z,7.15
2022-08-20T05:36:48.127Z,7.90
2022-08-20T05:39:18.259Z,8.23
2022-08-20T05:41:45.170Z,7.32
2022-08-20T05:44:15.492Z,7.88
2022-08-20T05:46:43.767Z,8.20
2022-08-20T05:49:12.160Z,9.10
2022-08-20T05:51:39.160Z,8.20
2022-08-20T05:54:06.867Z,8.05
2022-08-20T05:56:34.090Z,7.45
2022-08-20T05:59:03.718Z,7.22
2022-08-20T06:01:31.998Z,7.82
2022-08-20T06:04:17.529Z,7.78
2022-08-20T06:06:46.800Z,7.22
2022-08-20T06:09:16.073Z,7.10
2022-08-20T06:11:43.148Z,8.15
2022-08-20T06:14:10.165Z,7.78
2022-08-20T06:16:37.117Z,6.82
2022-08-20T06:19:04.718Z,7.35
2022-08-20T06:21:31.427Z,6.90
2022-08-20T06:24:01.191Z,6.97
2022-08-20T06:26:30.350Z,7.43
2022-08-20T06:29:04.727Z,7.55
2022-08-20T06:31:31.761Z,6.60
2022-08-20T06:33:58.891Z,6.80
2022-08-20T06:36:26.059Z,7.07
2022-08-20T06:38:54.882Z,6.68
2022-08-20T06:41:21.571Z,7.07
2022-08-20T06:43:49.275Z,7.03
2022-08-20T06:46:16.341Z,8.70
2022-08-20T06:48:43.449Z,7.20
2022-08-20T06:51:10.523Z,6.60
2022-08-20T06:53:37.331Z,7.05
2022-08-20T06:56:04.806Z,6.55
2022-08-20T06:58:37.705Z,8.10
2022-08-20T07:01:09.156Z,8.40
2022-08-20T07:03:38.233Z,7.85
2022-08-20T07:06:05.277Z,7.00
2022-08-20T07:08:33.273Z,10.40
2022-08-20T07:10:59.950Z,6.90
2022-08-20T07:13:28.053Z,7.30
2022-08-20T07:15:55.532Z,6.90
2022-08-20T07:18:28.064Z,6.47
2022-08-20T07:20:57.260Z,6.57
2022-08-20T07:23:25.647Z,7.53
2022-08-20T07:25:53.104Z,8.35
2022-08-20T07:28:22.840Z,8.23
2022-08-20T07:31:13.219Z,7.70
2022-08-20T07:33:41.646Z,9.18
2022-08-20T07:36:09.259Z,6.60
2022-08-20T07:38:37.895Z,8.52
2022-08-20T07:41:07.297Z,6.22
2022-08-20T07:43:34.991Z,8.20
2022-08-20T07:46:07.598Z,6.78
2022-08-20T07:48:38.450Z,7.90
2022-08-20T07:51:06.725Z,6.20
2022-08-20T07:53:36.131Z,7.05
2022-08-20T07:56:05.912Z,6.47
2022-08-20T07:58:35.667Z,7.90
2022-08-20T08:01:02.635Z,6.90
2022-08-20T08:03:39.463Z,6.22
2022-08-20T08:06:17.254Z,7.40
2022-08-20T08:08:57.951Z,6.10
2022-08-20T08:11:25.032Z,6.30
2022-08-20T08:13:52.112Z,7.30
2022-08-20T08:16:20.131Z,6.63
2022-08-20T08:18:50.506Z,8.32
2022-08-20T08:21:18.351Z,7.20
2022-08-20T08:23:45.691Z,9.15
2022-08-20T08:26:15.923Z,7.35
2022-08-20T08:28:46.324Z,8.23
2022-08-20T08:31:14.566Z,6.20
2022-08-20T08:33:41.975Z,8.48
2022-08-20T08:36:11.148Z,7.03
2022-08-20T08:38:39.806Z,8.25
2022-08-20T08:41:32.522Z,5.60
2022-08-20T08:44:02.921Z,5.85
2022-08-20T08:46:31.927Z,5.68
2022-08-20T08:49:01.607Z,6.10
2022-08-20T08:51:40.073Z,5.45
2022-08-20T08:54:07.979Z,6.35
2022-08-20T08:56:36.005Z,5.70
2022-08-20T08:59:06.467Z,5.20
2022-08-20T09:01:54.878Z,6.80
2022-08-20T09:04:23.669Z,5.30
2022-08-20T09:06:54.439Z,7.00
2022-08-20T09:09:30.609Z,7.43
2022-08-20T09:12:03.259Z,6.22
2022-08-20T09:14:29.875Z,6.60
2022-08-20T09:16:56.943Z,5.95
2022-08-20T09:19:23.628Z,5.78
2022-08-20T09:21:50.295Z,7.28
2022-08-20T09:24:16.930Z,7.07
2022-08-20T09:26:43.894Z,7.00
2022-08-20T09:29:11.064Z,5.88
2022-08-20T09:31:37.829Z,6.70
2022-08-20T09:34:05.720Z,7.75
2022-08-20T09:36:33.201Z,5.90
2022-08-20T09:39:02.935Z,8.35
2022-08-20T09:41:31.142Z,6.88
2022-08-20T09:44:00.528Z,7.68
2022-08-20T09:46:27.765Z,6.20
2022-08-20T09:48:55.085Z,6.22
2022-08-20T09:51:22.589Z,8.00
2022-08-20T09:53:49.416Z,7.85
2022-08-20T09:56:16.717Z,7.47
2022-08-20T09:58:54.992Z,7.65
2022-08-20T10:01:23.151Z,6.97
2022-08-20T10:03:50.750Z,7.57
2022-08-20T10:06:20.099Z,7.05
2022-08-20T10:08:49.843Z,7.32
2022-08-20T10:11:18.236Z,6.38
2022-08-20T10:13:45.344Z,8.07
2022-08-20T10:16:12.411Z,7.03
2022-08-20T10:18:39.598Z,6.90
2022-08-20T10:21:10.901Z,7.97
2022-08-20T10:23:37.672Z,6.63
2022-08-20T10:26:04.375Z,6.20
2022-08-20T10:28:31.025Z,6.45
2022-08-20T10:30:58.127Z,6.40
2022-08-20T10:33:24.758Z,6.40
2022-08-20T10:35:51.808Z,7.45
2022-08-20T10:38:21.865Z,6.55
2022-08-20T10:40:52.359Z,7.47
2022-08-20T10:43:19.323Z,7.05
2022-08-20T10:45:46.382Z,7.90
2022-08-20T10:48:15.255Z,7.13
2022-08-20T10:50:45.321Z,7.50
2022-08-20T10:53:13.047Z,7.85
2022-08-20T10:55:40.106Z,8.77
2022-08-20T10:58:08.357Z,7.15
2022-08-20T11:00:38.353Z,7.85
2022-08-20T11:03:05.438Z,7.88
2022-08-20T11:05:32.495Z,8.23
2022-08-20T11:08:03.299Z,6.70
2022-08-20T11:10:33.243Z,7.78
2022-08-20T11:13:01.066Z,7.35
2022-08-20T11:15:28.729Z,7.20
2022-08-20T11:17:56.360Z,6.53
2022-08-20T11:20:26.051Z,7.90
2022-08-20T11:22:54.095Z,7.00
2022-08-20T11:25:21.561Z,7.03
2022-08-20T11:27:49.536Z,8.75
2022-08-20T11:30:19.374Z,7.70
2022-08-20T11:32:46.461Z,7.45
2022-08-20T11:35:41.238Z,7.35
2022-08-20T11:38:01.302Z,6.47
2022-08-20T11:40:29.421Z,6.95
2022-08-20T11:43:14.304Z,7.43
2022-08-20T11:45:42.569Z,7.00
2022-08-20T11:48:09.314Z,6.57
2022-08-20T11:50:36.452Z,6.80
2022-08-20T11:53:03.572Z,7.95
2022-08-20T11:55:31.206Z,6.60
2022-08-20T11:58:00.711Z,6.13
2022-08-20T12:00:32.628Z,6.97
2022-08-20T12:03:01.309Z,5.88
2022-08-20T12:05:30.019Z,6.32
2022-08-20T12:07:57.562Z,5.90
2022-08-20T12:10:26.565Z,6.10
2022-08-20T12:12:53.486Z,5.78
2022-08-20T12:15:20.729Z,6.03
2022-08-20T12:17:47.932Z,7.15
2022-08-20T12:20:15.739Z,6.30
2022-08-20T12:22:43.958Z,5.72
2022-08-20T12:25:11.657Z,4.68
2022-08-20T12:27:40.095Z,5.68
2022-08-20T12:30:17.144Z,4.00
2022-08-20T12:32:44.760Z,4.18
2022-08-20T12:35:12.675Z,4.50
2022-08-20T12:37:40.657Z,5.47
2022-08-20T12:40:12.109Z,3.95
2022-08-20T12:42:39.092Z,4.90
2022-08-20T12:45:06.545Z,3.67
2022-08-20T12:47:35.590Z,4.00
2022-08-20T12:50:05.577Z,3.85
2022-08-20T12:52:32.735Z,4.50
2022-08-20T12:55:00.535Z,3.38
2022-08-20T12:57:33.224Z,3.90
2022-08-20T13:00:04.834Z,3.70
2022-08-20T13:02:32.043Z,3.88
2022-08-20T13:05:04.324Z,2.97
2022-08-20T13:07:32.210Z,3.92
2022-08-20T13:09:59.878Z,3.28
2022-08-20T13:12:27.191Z,3.38
2022-08-20T13:14:54.273Z,4.95
2022-08-20T13:17:29.286Z,3.78
2022-08-20T13:20:08.506Z,2.92
2022-08-20T13:22:35.707Z,3.90
2022-08-20T13:25:02.398Z,4.25
2022-08-20T13:27:29.010Z,2.85
2022-08-20T13:29:58.835Z,3.70
2022-08-20T13:32:26.607Z,2.67
2022-08-20T13:34:53.347Z,5.38
2022-08-20T13:37:25.587Z,3.33
2022-08-20T13:39:53.094Z,4.68
2022-08-20T13:42:20.328Z,4.10
2022-08-20T13:44:47.987Z,4.75
2022-08-20T13:47:24.761Z,3.00
2022-08-20T13:49:58.049Z,4.40
2022-08-20T13:52:25.900Z,2.55
2022-08-20T13:54:52.922Z,3.35
2022-08-20T13:57:20.952Z,2.30
2022-08-20T13:59:51.636Z,3.40
2022-08-20T14:02:19.033Z,2.70
2022-08-20T14:04:46.583Z,3.13
2022-08-20T14:07:18.867Z,2.67
2022-08-20T14:09:48.459Z,2.58
2022-08-20T14:12:16.910Z,3.10
2022-08-20T14:14:44.461Z,2.70
2022-08-20T14:17:20.953Z,2.90
2022-08-20T14:19:49.429Z,2.65
2022-08-20T14:22:19.285Z,1.20
2022-08-20T14:24:48.713Z,1.92
2022-08-20T14:27:16.964Z,2.97
2022-08-20T14:29:45.466Z,2.30
2022-08-20T14:32:12.806Z,1.50
2022-08-20T14:34:39.912Z,1.25
2022-08-20T14:37:16.172Z,0.80
2022-08-20T14:39:45.068Z,1.42
2022-08-20T14:42:12.868Z,2.08
2022-08-20T14:44:40.042Z,1.60
2022-08-20T14:47:10.954Z,0.93
2022-08-20T14:49:38.549Z,0.73
2022-08-20T14:52:05.799Z,0.60
2022-08-20T14:54:32.967Z,0.90
2022-08-20T14:57:02.008Z,0.80
2022-08-20T14:59:28.957Z,0.60
2022-08-20T15:01:56.134Z,0.68
2022-08-20T15:04:24.046Z,0.65
2022-08-20T15:06:54.626Z,1.80
2022-08-20T15:09:22.069Z,2.25
2022-08-20T15:11:49.295Z,0.82
2022-08-20T15:14:18.349Z,1.02
2022-08-20T15:16:45.449Z,1.48
2022-08-20T15:19:12.533Z,0.85
2022-08-20T15:21:45.562Z,1.67
2022-08-20T15:24:19.088Z,1.05
2022-08-20T15:26:46.581Z,1.95
2022-08-20T15:29:22.644Z,0.82
2022-08-20T15:31:49.822Z,1.98
2022-08-20T15:34:17.914Z,1.42
2022-08-20T15:36:45.530Z,1.40
2022-08-20T15:39:12.589Z,1.23
2022-08-20T15:41:39.661Z,2.67
2022-08-20T15:44:07.111Z,1.00
2022-08-20T15:46:38.989Z,1.45
2022-08-20T15:49:10.170Z,0.63
2022-08-20T15:51:48.252Z,0.93
2022-08-20T15:54:19.907Z,0.70
2022-08-20T15:57:28.423Z,1.77
2022-08-20T16:00:14.011Z,0.50
2022-08-20T16:03:07.854Z,1.65
2022-08-20T16:05:53.763Z,0.38
2022-08-20T16:08:39.686Z,1.73
2022-08-20T16:11:24.462Z,0.50
2022-08-20T16:14:11.908Z,1.38
2022-08-20T16:16:49.965Z,0.60
2022-08-20T16:19:28.517Z,0.82
2022-08-20T16:21:57.702Z,0.70
2022-08-20T16:24:24.536Z,0.50
2022-08-20T16:27:13.316Z,0.50
2022-08-20T16:30:01.673Z,1.35
2022-08-20T16:32:28.712Z,0.70
2022-08-20T16:34:58.098Z,0.55
2022-08-20T16:37:43.633Z,0.75
2022-08-20T16:40:28.665Z,0.93
2022-08-20T16:42:59.505Z,0.50
2022-08-20T16:45:28.156Z,1.58
2022-08-20T16:48:00.952Z,0.43
2022-08-20T16:51:00.870Z,1.55
2022-08-20T16:53:27.953Z,0.80
2022-08-20T16:55:55.874Z,2.10
2022-08-20T16:58:22.989Z,0.60
2022-08-20T17:01:11.613Z,0.60
2022-08-20T17:03:40.202Z,0.80
2022-08-20T17:06:18.158Z,1.58
2022-08-20T17:08:49.752Z,0.60
2022-08-20T17:11:25.183Z,0.60
2022-08-20T17:14:03.744Z,1.25
2022-08-20T17:16:40.073Z,0.80
2022-08-20T17:19:14.780Z,0.50
2022-08-20T17:21:42.388Z,1.40
2022-08-20T17:24:20.588Z,0.70
2022-08-20T17:26:50.732Z,1.98
2022-08-20T17:29:26.459Z,1.20
2022-08-20T17:32:20.830Z,0.47
2022-08-20T17:34:51.632Z,1.30
2022-08-20T17:37:40.765Z,0.90
2022-08-20T17:40:19.152Z,0.60
2022-08-20T17:42:58.573Z,1.42
2022-08-20T17:45:27.678Z,0.95
2022-08-20T17:47:55.537Z,0.68
2022-08-20T17:50:29.897Z,0.52
2022-08-20T17:52:59.369Z,0.60
2022-08-20T17:55:26.962Z,0.90
2022-08-20T17:57:57.890Z,0.95
2022-08-20T18:00:26.805Z,1.60
2022-08-20T18:02:56.552Z,0.77
2022-08-20T18:05:24.476Z,0.95
2022-08-20T18:07:57.477Z,2.15
2022-08-20T18:10:27.041Z,0.98
2022-08-20T18:13:01.786Z,2.15
2022-08-20T18:15:36.553Z,0.80
2022-08-20T18:18:12.831Z,1.33
2022-08-20T18:20:45.825Z,2.10
2022-08-20T18:23:22.084Z,1.40
2022-08-20T18:25:58.130Z,1.45
2022-08-20T18:28:28.300Z,1.15
2022-08-20T18:31:00.521Z,2.45
2022-08-20T18:33:31.719Z,1.08
2022-08-20T18:36:13.775Z,2.47
2022-08-20T18:38:42.283Z,1.73
2022-08-20T18:41:26.002Z,1.05
2022-08-20T18:44:03.004Z,2.08
2022-08-20T18:46:30.178Z,1.10
2022-08-20T18:48:58.668Z,1.30
2022-08-20T18:51:32.806Z,1.20
2022-08-20T18:53:59.674Z,0.85
2022-08-20T18:56:37.356Z,1.70
2022-08-20T18:59:24.770Z,1.00
2022-08-20T19:01:51.452Z,1.05
2022-08-20T19:04:29.659Z,1.65
2022-08-20T19:07:04.712Z,1.33
2022-08-20T19:09:50.484Z,1.27
2022-08-20T19:12:43.412Z,1.42
2022-08-20T19:15:22.499Z,1.02
2022-08-20T19:17:57.247Z,1.92
2022-08-20T19:20:26.404Z,1.05
2022-08-20T19:22:55.284Z,2.45
2022-08-20T19:25:30.573Z,0.90
2022-08-20T19:27:59.927Z,0.90
2022-08-20T19:30:39.032Z,1.27
2022-08-20T19:33:07.012Z,1.95
2022-08-20T19:35:34.256Z,1.50
2022-08-20T19:38:02.246Z,1.30
2022-08-20T19:40:33.214Z,1.13
2022-08-20T19:43:11.953Z,2.60
2022-08-20T19:45:54.239Z,1.02
2022-08-20T19:48:43.714Z,1.25
2022-08-20T19:51:27.816Z,2.00
2022-08-20T19:53:54.733Z,1.58
2022-08-20T19:56:24.642Z,1.83
2022-08-20T19:59:02.317Z,1.95
2022-08-20T20:01:29.244Z,1.63
2022-08-20T20:04:03.854Z,1.30
2022-08-20T20:06:35.980Z,2.20
2022-08-20T20:09:13.468Z,1.42
2022-08-20T20:11:48.419Z,1.23
2022-08-20T20:14:17.631Z,1.98
2022-08-20T20:16:48.682Z,1.85
2022-08-20T20:19:26.457Z,1.20
2022-08-20T20:22:05.775Z,2.70
2022-08-20T20:24:43.459Z,1.20
2022-08-20T20:27:22.118Z,1.40
2022-08-20T20:29:49.351Z,1.95
2022-08-20T20:32:21.187Z,1.38
2022-08-20T20:35:00.767Z,1.25
2022-08-20T20:37:49.154Z,1.20
2022-08-20T20:40:25.837Z,1.00
2022-08-20T20:43:04.566Z,1.23
2022-08-20T20:45:34.808Z,1.45
2022-08-20T20:48:06.021Z,1.20
2022-08-20T20:50:34.582Z,0.75
2022-08-20T20:53:01.712Z,1.60
2022-08-20T20:55:33.592Z,1.10
2022-08-20T20:58:02.555Z,2.10
2022-08-20T21:00:33.278Z,1.17
2022-08-20T21:03:03.813Z,1.05
2022-08-20T21:05:31.742Z,1.35
2022-08-20T21:08:01.145Z,2.38
2022-08-20T21:10:32.253Z,0.80
2022-08-20T21:12:59.686Z,1.13
2022-08-20T21:15:27.362Z,1.20
2022-08-20T21:17:54.604Z,3.40
2022-08-20T21:20:22.352Z,1.25
2022-08-20T21:22:49.362Z,1.52
2022-08-20T21:25:16.058Z,1.52
2022-08-20T21:27:44.970Z,2.25
2022-08-20T21:30:12.596Z,1.35
2022-08-20T21:32:39.711Z,2.30
2022-08-20T21:35:07.176Z,1.23
2022-08-20T21:37:34.239Z,1.20
2022-08-20T21:40:00.933Z,1.40
2022-08-20T21:42:29.789Z,1.15
2022-08-20T21:44:57.459Z,1.10
2022-08-20T21:47:24.829Z,1.35
2022-08-20T21:49:51.915Z,1.65
2022-08-20T21:52:18.943Z,1.10
2022-08-20T21:54:45.584Z,2.00
2022-08-20T21:57:19.152Z,2.03
2022-08-20T21:59:46.142Z,1.75
2022-08-20T22:02:13.411Z,1.20
2022-08-20T22:04:41.093Z,1.60
2022-08-20T22:07:08.166Z,2.13
2022-08-20T22:09:36.376Z,1.13
2022-08-20T22:12:04.014Z,1.00
2022-08-20T22:14:31.135Z,1.10
2022-08-20T22:16:58.287Z,1.55
2022-08-20T22:19:25.378Z,1.38
2022-08-20T22:21:54.582Z,1.85
2022-08-20T22:24:21.814Z,1.73
2022-08-20T22:26:48.443Z,1.73
2022-08-20T22:29:15.104Z,1.10
2022-08-20T22:31:43.418Z,2.83
2022-08-20T22:34:16.401Z,1.70
2022-08-20T22:36:43.468Z,2.47
2022-08-20T22:39:10.381Z,1.00
2022-08-20T22:41:37.972Z,1.98
2022-08-20T22:44:05.257Z,0.65
2022-08-20T22:46:41.468Z,1.20
2022-08-20T22:49:13.714Z,1.70
2022-08-20T22:51:43.055Z,2.22
2022-08-20T22:54:12.976Z,1.00
2022-08-20T22:56:40.846Z,2.38
2022-08-20T22:59:07.983Z,1.00
2022-08-20T23:01:34.722Z,1.10
2022-08-20T23:04:05.018Z,1.10
2022-08-20T23:06:32.232Z,2.25
2022-08-20T23:09:01.771Z,1.05
2022-08-20T23:11:29.558Z,1.10
2022-08-20T23:13:57.017Z,1.27
2022-08-20T23:16:25.165Z,1.23
2022-08-20T23:18:52.357Z,2.08
2022-08-20T23:21:19.014Z,1.08
2022-08-20T23:23:46.076Z,1.83
2022-08-20T23:26:18.886Z,1.75
2022-08-20T23:28:45.681Z,1.75
2022-08-20T23:31:12.850Z,1.70
2022-08-20T23:33:42.977Z,2.10
2022-08-20T23:36:12.202Z,0.93
2022-08-20T23:38:39.218Z,1.50
2022-08-20T23:41:06.374Z,1.58
2022-08-20T23:43:33.208Z,1.10
2022-08-20T23:46:03.692Z,1.15
2022-08-20T23:48:30.760Z,2.08
2022-08-20T23:50:57.400Z,1.05
2022-08-20T23:53:24.016Z,1.10
2022-08-20T23:55:50.846Z,1.80
2022-08-20T23:58:17.538Z,2.17
